Time;durP1;ratioP1;P1;durP2;ratioP2;P2;SDS_P1;SDS_P2;PMS_P1;PMS_P2;Temp;Humidity;BMP_temperature;BMP_pressure;BME280_temperature;BME280_humidity;BME280_pressure;Samples;Min_cycle;Max_cycle;Signal;HPM_P1;HPM_P2
2022/11/21 00:00:51;;;;;;;5.32;3.30;;;;;;;12.22;nan;-24158.22;5033417;28;20642;-72
2022/11/21 00:03:17;;;;;;;8.82;3.42;;;;;;;12.19;nan;-24157.38;5033789;28;20765;-73
2022/11/21 00:05:45;;;;;;;5.97;3.45;;;;;;;12.19;nan;-24157.38;5033715;28;20179;-72
2022/11/21 00:08:12;;;;;;;3.35;2.75;;;;;;;11.89;nan;-24149.06;5033632;28;20198;-72
2022/11/21 00:10:38;;;;;;;5.18;3.28;;;;;;;11.88;nan;-24148.78;5033603;28;20178;-73
2022/11/21 00:13:05;;;;;;;4.57;3.38;;;;;;;12.19;nan;-24157.50;5033671;28;20190;-73
2022/11/21 00:15:32;;;;;;;6.38;3.10;;;;;;;11.49;nan;-24138.06;5033448;28;20277;-72
2022/11/21 00:18:01;;;;;;;5.65;3.13;;;;;;;11.64;nan;-24142.00;5033809;28;20202;-73
2022/11/21 00:20:27;;;;;;;7.57;3.15;;;;;;;11.68;nan;-24143.13;5033750;28;20171;-73
2022/11/21 00:22:52;;;;;;;5.45;3.38;;;;;;;11.51;nan;-24138.50;5033557;28;20540;-72
2022/11/21 00:25:18;;;;;;;5.38;3.17;;;;;;;11.77;nan;-24145.81;5033533;28;20210;-73
2022/11/21 00:27:43;;;;;;;9.48;3.63;;;;;;;11.93;nan;-24150.31;5033274;28;20206;-73
2022/11/21 00:30:10;;;;;;;7.20;3.60;;;;;;;11.92;nan;-24150.03;5033074;28;20301;-73
2022/11/21 00:32:36;;;;;;;4.82;3.17;;;;;;;11.66;nan;-24142.56;5032814;28;20712;-73
2022/11/21 00:35:01;;;;;;;6.03;3.42;;;;;;;11.55;nan;-24139.47;5033440;28;20164;-73
2022/11/21 00:37:27;;;;;;;5.35;2.75;;;;;;;11.85;nan;-24148.06;5033190;28;20239;-72
2022/11/21 00:39:52;;;;;;;5.32;2.97;;;;;;;11.45;nan;-24136.94;5033298;28;20184;-73
2022/11/21 00:42:18;;;;;;;5.28;3.42;;;;;;;11.50;nan;-24138.34;5033336;28;20201;-72
2022/11/21 00:44:43;;;;;;;5.53;3.28;;;;;;;11.77;nan;-24145.81;5032775;28;20258;-72
2022/11/21 00:47:08;;;;;;;4.57;3.05;;;;;;;11.37;nan;-24134.69;5032899;28;20591;-72
2022/11/21 00:49:34;;;;;;;7.20;3.35;;;;;;;11.35;nan;-24133.97;5033007;28;20254;-73
2022/11/21 00:51:59;;;;;;;5.05;3.72;;;;;;;11.26;nan;-24131.59;4894324;28;20210;-72
2022/11/21 00:54:25;;;;;;;3.63;3.05;;;;;;;11.41;nan;-24135.66;5032509;28;20171;-73
2022/11/21 00:56:50;;;;;;;5.78;2.67;;;;;;;11.38;nan;-24134.97;5014840;28;20199;-72
2022/11/21 00:59:16;;;;;;;3.17;2.65;;;;;;;11.68;nan;-24143.28;5032514;28;20630;-72
2022/11/21 01:01:41;;;;;;;7.65;3.65;;;;;;;11.54;nan;-24139.34;5032874;28;20182;-72
2022/11/21 01:04:06;;;;;;;6.20;3.17;;;;;;;11.46;nan;-24137.09;5032876;28;20610;-73
2022/11/21 01:06:32;;;;;;;5.30;3.17;;;;;;;11.08;nan;-24126.66;5032846;28;20186;-73
2022/11/21 01:08:57;;;;;;;5.03;3.25;;;;;;;11.53;nan;-24139.19;5032314;28;20181;-72
2022/11/21 01:11:23;;;;;;;5.18;3.47;;;;;;;11.14;nan;-24128.06;5029823;28;20257;-73
2022/11/21 01:13:48;;;;;;;6.15;3.65;;;;;;;11.74;nan;-24144.84;5023532;28;20273;-73
2022/11/21 01:16:19;;;;;;;4.15;3.35;;;;;;;11.93;nan;-24150.19;5018019;28;20187;-73
2022/11/21 01:18:45;;;;;;;6.90;3.58;;;;;;;11.74;nan;-24144.84;5032558;28;20171;-73
2022/11/21 01:21:22;;;;;;;5.07;3.08;;;;;;;12.09;nan;-24154.69;5030216;28;20584;-72
2022/11/21 01:23:48;;;;;;;5.95;3.22;;;;;;;12.07;nan;-24154.00;5034266;28;20191;-72
2022/11/21 01:26:16;;;;;;;4.53;2.90;;;;;;;12.19;nan;-24157.38;5020604;28;20175;-73
2022/11/21 01:28:41;;;;;;;5.32;3.00;;;;;;;11.90;nan;-24149.47;5032203;28;20278;-73
2022/11/21 01:31:15;;;;;;;10.05;3.63;;;;;;;12.24;nan;-24158.78;5018460;28;20690;-72
2022/11/21 01:33:41;;;;;;;6.45;3.15;;;;;;;12.35;nan;-24161.88;5012076;28;20196;-72
2022/11/21 01:36:10;;;;;;;5.35;3.38;;;;;;;12.27;nan;-24159.75;5012402;28;20249;-73
2022/11/21 01:38:36;;;;;;;4.82;3.58;;;;;;;12.38;nan;-24162.72;5012147;28;20172;-73
2022/11/21 01:41:02;;;;;;;4.40;3.40;;;;;;;12.05;nan;-24153.56;5012152;28;20242;-73
2022/11/21 01:43:27;;;;;;;4.97;2.95;;;;;;;12.02;nan;-24152.72;5012156;28;20179;-73
2022/11/21 01:45:57;;;;;;;5.60;3.70;;;;;;;12.29;nan;-24160.31;5012103;28;20656;-73
2022/11/21 01:48:43;;;;;;;5.28;2.88;;;;;;;12.33;nan;-24161.44;5012425;28;20231;-73
2022/11/21 01:51:14;;;;;;;4.20;2.70;;;;;;;12.27;nan;-24159.75;5011564;28;20195;-73
2022/11/21 01:53:42;;;;;;;4.30;3.00;;;;;;;12.25;nan;-24159.19;5012003;28;20857;-73
2022/11/21 01:56:08;;;;;;;5.40;3.28;;;;;;;11.94;nan;-24150.47;5011866;28;20647;-73
2022/11/21 01:58:37;;;;;;;4.72;2.90;;;;;;;11.97;nan;-24151.16;5011804;28;20176;-73
2022/11/21 02:01:02;;;;;;;6.15;3.20;;;;;;;12.20;nan;-24157.78;5011985;28;20176;-73
2022/11/21 02:03:32;;;;;;;5.57;3.17;;;;;;;11.72;nan;-24144.41;5010640;28;20573;-73
2022/11/21 02:05:58;;;;;;;3.85;2.35;;;;;;;12.17;nan;-24156.94;5011487;28;20183;-73
2022/11/21 02:08:25;;;;;;;5.57;2.70;;;;;;;12.06;nan;-24153.69;5012208;28;20651;-73
2022/11/21 02:11:16;;;;;;;4.82;3.20;;;;;;;12.21;nan;-24158.06;5014718;28;20230;-73
2022/11/21 02:13:41;;;;;;;5.90;3.25;;;;;;;11.90;nan;-24149.34;5031311;28;20207;-73
2022/11/21 02:16:07;;;;;;;5.35;2.78;;;;;;;11.74;nan;-24144.84;5031431;28;20167;-73
2022/11/21 02:18:32;;;;;;;4.18;3.03;;;;;;;11.76;nan;-24145.41;5031440;28;20535;-71
2022/11/21 02:21:09;;;;;;;4.22;2.70;;;;;;;11.89;nan;-24149.06;5031718;28;20262;-72
2022/11/21 02:23:44;;;;;;;4.28;2.67;;;;;;;11.92;nan;-24149.91;5031217;28;20166;-72
2022/11/21 02:26:10;;;;;;;4.03;2.60;;;;;;;11.81;nan;-24146.81;5030824;28;20159;-72
2022/11/21 02:28:36;;;;;;;4.07;2.72;;;;;;;11.81;nan;-24146.81;5013594;28;20669;-72
2022/11/21 02:31:01;;;;;;;3.72;2.53;;;;;;;11.76;nan;-24145.53;5031219;28;20167;-72
2022/11/21 02:33:26;;;;;;;4.63;3.05;;;;;;;11.41;nan;-24135.66;5029994;28;20345;-72
2022/11/21 02:35:59;;;;;;;7.18;2.92;;;;;;;11.68;nan;-24143.13;5030411;28;20310;-72
2022/11/21 02:38:33;;;;;;;3.30;2.55;;;;;;;11.34;nan;-24133.84;5030957;28;20250;-72
2022/11/21 02:41:25;;;;;;;6.85;3.08;;;;;;;11.58;nan;-24140.47;5030667;28;20171;-72
2022/11/21 02:44:06;;;;;;;4.80;2.80;;;;;;;11.48;nan;-24137.63;5030805;28;20170;-72
2022/11/21 02:46:34;;;;;;;5.05;3.05;;;;;;;11.51;nan;-24138.63;5030852;28;20178;-72
2022/11/21 02:49:02;;;;;;;4.60;2.55;;;;;;;11.15;nan;-24128.47;5030631;28;20179;-72
2022/11/21 02:51:27;;;;;;;6.13;2.97;;;;;;;11.22;nan;-24130.31;5012281;28;20266;-72
2022/11/21 02:53:52;;;;;;;4.68;2.65;;;;;;;11.25;nan;-24131.16;5030578;28;20286;-72
2022/11/21 02:56:18;;;;;;;4.78;3.13;;;;;;;11.32;nan;-24133.28;5030932;28;20191;-72
2022/11/21 02:58:43;;;;;;;4.13;3.08;;;;;;;11.33;nan;-24133.56;5030103;28;20539;-72
2022/11/21 03:01:09;;;;;;;4.38;3.03;;;;;;;11.57;nan;-24140.03;5023519;28;20180;-72
2022/11/21 03:03:34;;;;;;;4.80;2.80;;;;;;;11.04;nan;-24125.38;5034701;28;20206;-72
2022/11/21 03:05:59;;;;;;;5.45;2.97;;;;;;;11.50;nan;-24138.34;5029469;28;20179;-72
2022/11/21 03:08:25;;;;;;;3.97;2.40;;;;;;;11.58;nan;-24140.31;5029971;28;20172;-72
2022/11/21 03:10:50;;;;;;;5.80;3.83;;;;;;;11.52;nan;-24138.91;5012834;28;20229;-72
2022/11/21 03:13:15;;;;;;;3.75;2.60;;;;;;;11.03;nan;-24125.25;5030249;28;20257;-72
2022/11/21 03:15:41;;;;;;;5.30;2.75;;;;;;;10.91;nan;-24121.84;5031021;28;20623;-72
2022/11/21 03:18:06;;;;;;;4.65;3.53;;;;;;;11.02;nan;-24124.81;5030943;28;20250;-72
2022/11/21 03:20:33;;;;;;;3.33;2.35;;;;;;;11.25;nan;-24131.16;5030707;28;20348;-72
2022/11/21 03:22:59;;;;;;;3.67;2.78;;;;;;;11.35;nan;-24134.13;5030663;28;20183;-72
2022/11/21 03:25:24;;;;;;;5.38;2.50;;;;;;;11.21;nan;-24130.19;5030732;28;20179;-72
2022/11/21 03:27:51;;;;;;;5.28;2.90;;;;;;;11.42;nan;-24136.09;5030464;28;20171;-71
2022/11/21 03:30:17;;;;;;;5.05;3.13;;;;;;;11.53;nan;-24139.06;5013037;28;20588;-72
2022/11/21 03:32:42;;;;;;;5.32;3.17;;;;;;;11.51;nan;-24138.50;5030318;28;20262;-72
2022/11/21 03:35:08;;;;;;;4.15;2.53;;;;;;;11.00;nan;-24124.41;5032448;28;20602;-72
2022/11/21 03:37:33;;;;;;;3.28;2.97;;;;;;;11.49;nan;-24138.06;5033749;28;20176;-72
2022/11/21 03:39:58;;;;;;;4.93;3.53;;;;;;;11.19;nan;-24129.59;5028552;28;20198;-72
2022/11/21 03:42:24;;;;;;;4.18;3.00;;;;;;;11.64;nan;-24142.16;5038957;28;20267;-72
2022/11/21 03:44:49;;;;;;;5.70;3.45;;;;;;;11.08;nan;-24126.66;5016329;28;20376;-72
2022/11/21 03:47:14;;;;;;;8.10;3.83;;;;;;;11.52;nan;-24138.78;5033929;28;20213;-72
2022/11/21 03:49:40;;;;;;;6.97;4.20;;;;;;;11.68;nan;-24143.13;5034392;28;20553;-72
2022/11/21 03:52:05;;;;;;;9.15;3.92;;;;;;;11.16;nan;-24128.63;5033804;28;20230;-72
2022/11/21 03:54:31;;;;;;;8.25;4.20;;;;;;;11.55;nan;-24139.63;5033284;28;20168;-72
2022/11/21 03:56:56;;;;;;;10.90;4.78;;;;;;;11.14;nan;-24128.19;5033928;28;20643;-72
2022/11/21 03:59:21;;;;;;;7.15;4.22;;;;;;;11.13;nan;-24127.91;5034114;28;20518;-72
2022/11/21 04:01:47;;;;;;;8.75;4.38;;;;;;;11.05;nan;-24125.81;5033669;28;20171;-72
2022/11/21 04:04:12;;;;;;;5.13;3.30;;;;;;;11.11;nan;-24127.22;5033597;28;20202;-72
2022/11/21 04:06:37;;;;;;;11.18;4.38;;;;;;;11.22;nan;-24130.31;5033231;28;20175;-72
2022/11/21 04:09:03;;;;;;;7.88;4.63;;;;;;;11.27;nan;-24131.72;5033465;28;20171;-72
2022/11/21 04:11:28;;;;;;;9.07;4.88;;;;;;;11.62;nan;-24141.44;5033576;28;20706;-72
2022/11/21 04:13:54;;;;;;;8.88;5.18;;;;;;;11.17;nan;-24128.91;5033368;28;20265;-72
2022/11/21 04:16:19;;;;;;;9.55;4.78;;;;;;;11.21;nan;-24130.19;5033289;28;20262;-72
2022/11/21 04:18:45;;;;;;;13.60;4.95;;;;;;;11.63;nan;-24141.72;5016013;28;20630;-72
2022/11/21 04:21:10;;;;;;;11.25;5.90;;;;;;;11.15;nan;-24128.47;5028450;28;20191;-71
2022/11/21 04:23:36;;;;;;;10.48;6.00;;;;;;;11.58;nan;-24140.31;5018588;28;20246;-72
2022/11/21 04:26:02;;;;;;;12.13;6.05;;;;;;;11.11;nan;-24127.22;5018658;28;20190;-72
2022/11/21 04:28:28;;;;;;;12.38;5.93;;;;;;;11.05;nan;-24125.81;5017960;28;20185;-72
2022/11/21 04:30:53;;;;;;;12.05;5.47;;;;;;;11.43;nan;-24136.22;5018242;28;20183;-72
2022/11/21 04:33:19;;;;;;;13.15;5.85;;;;;;;10.94;nan;-24122.56;5018756;28;20207;-72
2022/11/21 04:35:45;;;;;;;11.98;5.80;;;;;;;11.39;nan;-24135.25;5017650;28;20179;-73
2022/11/21 04:38:13;;;;;;;14.25;6.05;;;;;;;11.15;nan;-24128.47;5018673;28;20185;-72
2022/11/21 04:40:38;;;;;;;11.55;6.35;;;;;;;11.47;nan;-24137.34;5016872;28;20659;-73
2022/11/21 04:43:04;;;;;;;14.55;6.35;;;;;;;11.08;nan;-24126.66;5018493;28;20203;-72
2022/11/21 04:45:30;;;;;;;12.40;5.80;;;;;;;10.93;nan;-24122.28;5018206;28;20184;-72
2022/11/21 04:47:56;;;;;;;7.60;4.30;;;;;;;10.95;nan;-24123.00;5017160;28;20204;-72
2022/11/21 04:50:21;;;;;;;10.20;5.15;;;;;;;11.12;nan;-24127.63;5017598;28;20542;-73
2022/11/21 04:52:54;;;;;;;12.18;6.13;;;;;;;10.39;nan;-24107.31;5016666;28;20199;-73
2022/11/21 04:55:22;;;;;;;10.65;5.03;;;;;;;10.50;nan;-24110.44;5018714;28;20175;-73
2022/11/21 04:57:48;;;;;;;13.27;5.88;;;;;;;10.90;nan;-24121.44;5016850;28;20195;-72
2022/11/21 05:00:15;;;;;;;12.85;6.30;;;;;;;10.66;nan;-24114.81;5018756;28;20251;-72
2022/11/21 05:02:41;;;;;;;10.23;5.55;;;;;;;10.96;nan;-24123.25;4996798;28;20583;-73
2022/11/21 05:05:07;;;;;;;11.13;5.53;;;;;;;10.87;nan;-24120.59;5005347;28;20193;-73
2022/11/21 05:07:32;;;;;;;12.23;5.85;;;;;;;10.90;nan;-24121.44;5027003;28;20186;-73
2022/11/21 05:09:58;;;;;;;13.15;6.30;;;;;;;11.07;nan;-24126.22;5015314;28;20666;-72
2022/11/21 05:15:08;;;;;;;11.57;5.40;;;;;;;11.04;nan;-24125.53;5017016;28;20187;-73
2022/11/21 05:17:33;;;;;;;9.02;4.95;;;;;;;10.84;nan;-24119.75;5020426;28;20241;-72
2022/11/21 05:19:59;;;;;;;11.25;5.88;;;;;;;10.66;nan;-24114.81;5017447;28;20662;-72
2022/11/21 05:22:24;;;;;;;13.38;5.78;;;;;;;11.07;nan;-24126.22;5020911;28;20289;-73
2022/11/21 05:24:50;;;;;;;10.07;5.22;;;;;;;11.11;nan;-24127.22;5022863;28;20187;-73
2022/11/21 05:27:15;;;;;;;13.00;6.30;;;;;;;11.08;nan;-24126.66;5018644;28;20348;-74
2022/11/21 05:29:41;;;;;;;9.70;5.15;;;;;;;10.78;nan;-24118.03;5013984;28;20203;-73
2022/11/21 05:32:06;;;;;;;9.77;5.00;;;;;;;10.98;nan;-24123.84;5013665;28;20245;-73
2022/11/21 05:34:31;;;;;;;11.18;5.70;;;;;;;10.69;nan;-24115.50;5017135;28;20188;-72
2022/11/21 05:36:57;;;;;;;8.07;4.75;;;;;;;10.64;nan;-24114.25;5020540;28;20646;-72
2022/11/21 05:39:24;;;;;;;10.50;6.43;;;;;;;10.72;nan;-24116.50;5017847;28;20210;-73
2022/11/21 05:41:50;;;;;;;12.98;5.28;;;;;;;10.81;nan;-24119.03;5026406;28;20179;-74
2022/11/21 05:44:15;;;;;;;9.93;5.68;;;;;;;10.40;nan;-24107.47;5012408;28;20260;-74
2022/11/21 05:46:41;;;;;;;12.93;5.82;;;;;;;10.81;nan;-24118.91;5011206;28;20631;-74
2022/11/21 05:49:07;;;;;;;13.30;6.03;;;;;;;10.81;nan;-24119.03;5011610;28;20502;-74
2022/11/21 05:51:32;;;;;;;10.23;5.70;;;;;;;10.79;nan;-24118.34;5011344;28;20168;-73
2022/11/21 05:53:58;;;;;;;9.77;5.80;;;;;;;10.91;nan;-24121.72;5010962;28;20211;-73
2022/11/21 05:56:24;;;;;;;8.73;5.55;;;;;;;10.73;nan;-24116.63;5011129;28;20172;-74
2022/11/21 05:58:49;;;;;;;10.10;4.72;;;;;;;11.12;nan;-24127.63;5010724;28;20638;-73
2022/11/21 06:03:25;;;;;;;8.43;5.22;;;;;;;10.92;nan;-24122.13;5010903;28;20553;-75
2022/11/21 06:04:00;;;;;;;12.15;5.47;;;;;;;11.03;nan;-24125.09;5010916;28;20677;-74
2022/11/21 06:06:26;;;;;;;10.23;4.88;;;;;;;10.90;nan;-24121.44;5010900;28;20187;-73
2022/11/21 06:08:51;;;;;;;9.80;4.82;;;;;;;10.71;nan;-24116.06;5011045;28;20222;-74
2022/11/21 06:11:16;;;;;;;10.65;5.68;;;;;;;10.66;nan;-24114.66;5022396;28;20219;-74
2022/11/21 06:13:42;;;;;;;9.35;4.80;;;;;;;11.12;nan;-24127.63;5022402;28;20210;-74
2022/11/21 06:16:17;;;;;;;9.32;4.90;;;;;;;10.87;nan;-24120.59;5014535;28;20179;-74
2022/11/21 06:18:44;;;;;;;6.63;4.60;;;;;;;10.70;nan;-24115.94;5023917;28;20176;-73
2022/11/21 06:21:17;;;;;;;8.63;4.82;;;;;;;10.98;nan;-24123.69;5021857;28;20666;-74
2022/11/21 06:23:43;;;;;;;9.65;4.65;;;;;;;11.16;nan;-24128.75;5021911;28;20265;-73
2022/11/21 06:26:15;;;;;;;11.50;4.90;;;;;;;10.91;nan;-24121.72;5013552;28;20266;-73
2022/11/21 06:28:41;;;;;;;9.25;4.55;;;;;;;10.95;nan;-24123.00;5030779;28;20171;-73
2022/11/21 06:31:29;;;;;;;11.60;5.35;;;;;;;11.31;nan;-24133.00;5030371;28;20266;-74
2022/11/21 06:33:56;;;;;;;10.55;5.07;;;;;;;10.89;nan;-24121.28;5030393;28;20195;-73
2022/11/21 06:36:22;;;;;;;8.43;5.10;;;;;;;10.85;nan;-24120.03;5030911;28;20595;-73
2022/11/21 06:38:48;;;;;;;7.50;4.22;;;;;;;10.84;nan;-24119.75;5030490;28;20183;-73
2022/11/21 06:41:19;;;;;;;9.13;4.68;;;;;;;10.47;nan;-24109.59;5030495;28;20183;-73
2022/11/21 06:43:44;;;;;;;10.45;5.03;;;;;;;10.62;nan;-24113.69;5030131;28;20233;-74
2022/11/21 06:46:11;;;;;;;7.45;4.35;;;;;;;10.58;nan;-24112.69;5030485;28;20659;-73
2022/11/21 06:48:37;;;;;;;9.32;4.70;;;;;;;10.79;nan;-24118.47;5029498;28;20556;-72
2022/11/21 06:51:09;;;;;;;7.55;4.75;;;;;;;11.08;nan;-24126.66;5022271;28;20677;-74
2022/11/21 06:53:34;;;;;;;10.80;4.78;;;;;;;11.75;nan;-24145.13;5016986;28;20217;-72
2022/11/21 06:56:01;;;;;;;7.65;3.80;;;;;;;11.77;nan;-24145.81;5010743;28;20582;-74
2022/11/21 06:58:27;;;;;;;7.00;4.13;;;;;;;11.58;nan;-24140.31;5021782;28;20673;-74
2022/11/21 07:00:53;;;;;;;7.93;4.22;;;;;;;11.86;nan;-24148.22;5027358;28;20669;-74
2022/11/21 07:03:20;;;;;;;9.43;4.28;;;;;;;12.36;nan;-24162.28;5019358;28;20262;-73
2022/11/21 07:05:45;;;;;;;6.35;3.60;;;;;;;12.37;nan;-24162.44;5020893;28;20642;-74
2022/11/21 07:08:12;;;;;;;5.80;3.70;;;;;;;12.77;nan;-24173.53;5030316;28;20181;-75
2022/11/21 07:10:37;;;;;;;6.25;3.83;;;;;;;13.03;nan;-24180.84;5026910;28;20183;-74
2022/11/21 07:13:21;;;;;;;10.30;3.95;;;;;;;13.05;nan;-24181.28;5023051;28;20599;-74
2022/11/21 07:15:51;;;;;;;6.50;3.58;;;;;;;13.34;nan;-24189.28;5029908;28;20179;-73
2022/11/21 07:18:17;;;;;;;11.05;4.22;;;;;;;13.35;nan;-24189.56;5034373;28;20163;-73
2022/11/21 07:20:43;;;;;;;7.22;3.83;;;;;;;13.48;nan;-24193.34;5015977;28;20618;-73
2022/11/21 07:23:09;;;;;;;7.93;4.38;;;;;;;13.70;nan;-24199.41;5034383;28;20321;-74
2022/11/21 07:25:34;;;;;;;9.55;4.40;;;;;;;13.81;nan;-24202.34;5034939;28;20270;-73
2022/11/21 07:28:01;;;;;;;7.97;5.28;;;;;;;13.80;nan;-24202.19;5034704;28;20167;-73
2022/11/21 07:30:27;;;;;;;11.85;4.68;;;;;;;13.45;nan;-24192.53;5034194;28;20646;-73
2022/11/21 07:33:00;;;;;;;7.30;4.32;;;;;;;13.96;nan;-24206.69;5034474;28;20210;-73
2022/11/21 07:35:27;;;;;;;9.07;5.07;;;;;;;13.61;nan;-24196.88;5033975;28;20255;-74
2022/11/21 07:37:53;;;;;;;7.38;4.55;;;;;;;13.60;nan;-24196.59;5034518;28;20665;-73
2022/11/21 07:40:19;;;;;;;11.32;4.70;;;;;;;13.71;nan;-24199.81;5034583;28;20527;-72
2022/11/21 07:42:45;;;;;;;8.20;5.15;;;;;;;13.98;nan;-24207.25;5016454;28;20545;-73
2022/11/21 07:45:11;;;;;;;10.43;4.45;;;;;;;13.81;nan;-24202.50;5034458;28;20178;-73
2022/11/21 07:47:37;;;;;;;8.52;4.80;;;;;;;13.85;nan;-24203.59;5034113;28;20172;-73
2022/11/21 07:50:03;;;;;;;9.02;5.05;;;;;;;13.77;nan;-24201.22;5033865;28;20178;-73
2022/11/21 07:52:29;;;;;;;9.57;5.60;;;;;;;13.67;nan;-24198.56;5033568;28;20570;-73
2022/11/21 07:54:55;;;;;;;6.55;4.80;;;;;;;14.17;nan;-24212.44;5033943;28;20657;-73
2022/11/21 07:57:21;;;;;;;7.35;4.88;;;;;;;13.76;nan;-24200.94;5016293;28;20171;-71
2022/11/21 07:59:46;;;;;;;11.32;5.63;;;;;;;14.05;nan;-24209.09;5033836;28;20650;-72
2022/11/21 08:02:23;;;;;;;8.32;5.25;;;;;;;14.12;nan;-24211.03;5034005;28;20190;-73
2022/11/21 08:04:49;;;;;;;8.57;4.82;;;;;;;13.76;nan;-24200.94;5033577;28;20176;-73
2022/11/21 08:07:16;;;;;;;8.82;4.82;;;;;;;13.82;nan;-24202.63;5015866;28;20183;-73
2022/11/21 08:09:41;;;;;;;6.18;4.03;;;;;;;13.69;nan;-24199.25;5033619;28;20175;-72
2022/11/21 08:12:07;;;;;;;6.07;4.18;;;;;;;14.13;nan;-24211.47;5033436;28;20284;-73
2022/11/21 08:14:33;;;;;;;7.05;3.72;;;;;;;14.23;nan;-24214.00;5033439;28;20171;-72
2022/11/21 08:16:59;;;;;;;5.43;3.05;;;;;;;14.11;nan;-24210.75;5034013;28;20289;-72
2022/11/21 08:19:24;;;;;;;4.32;2.95;;;;;;;14.17;nan;-24212.44;5033499;28;20190;-72
2022/11/21 08:21:50;;;;;;;6.35;3.80;;;;;;;14.43;nan;-24219.59;5033483;28;20262;-72
2022/11/21 08:24:16;;;;;;;5.88;2.60;;;;;;;14.57;nan;-24223.53;5033630;28;20242;-72
2022/11/21 08:26:44;;;;;;;8.88;3.28;;;;;;;14.56;nan;-24223.25;5033201;28;20168;-73
2022/11/21 08:29:11;;;;;;;4.57;3.03;;;;;;;14.69;nan;-24226.91;5033577;28;20217;-72
2022/11/21 08:31:37;;;;;;;8.10;3.35;;;;;;;14.87;nan;-24231.94;5030976;28;20188;-73
2022/11/21 08:34:03;;;;;;;4.63;2.65;;;;;;;15.55;nan;-24250.72;5023827;28;20210;-72
2022/11/21 08:36:28;;;;;;;5.60;3.80;;;;;;;15.70;nan;-24254.78;5021149;28;20202;-73
2022/11/21 08:38:54;;;;;;;4.68;3.28;;;;;;;16.22;nan;-24269.19;5032880;28;20222;-72
2022/11/21 08:44:04;;;;;;;5.20;2.83;;;;;;;16.87;nan;-24287.22;5032469;28;20234;-72
2022/11/21 08:46:32;;;;;;;4.78;3.00;;;;;;;17.32;nan;-24299.63;5032248;28;20241;-73
2022/11/21 08:48:58;;;;;;;4.20;2.33;;;;;;;17.70;nan;-24309.97;5032833;28;20244;-72
2022/11/21 08:51:24;;;;;;;5.10;2.08;;;;;;;17.90;nan;-24315.69;5032736;28;20263;-73
2022/11/21 08:53:49;;;;;;;3.13;2.08;;;;;;;17.92;nan;-24316.09;5032357;28;20352;-73
2022/11/21 08:56:15;;;;;;;3.25;1.48;;;;;;;18.06;nan;-24320.16;5014460;28;20214;-73
2022/11/21 08:58:40;;;;;;;1.88;1.58;;;;;;;17.89;nan;-24315.28;5032632;28;20616;-75
2022/11/21 09:01:06;;;;;;;1.30;1.20;;;;;;;18.03;nan;-24319.31;5032247;28;20171;-73
2022/11/21 09:03:31;;;;;;;1.88;0.80;;;;;;;18.01;nan;-24318.63;5025852;28;20562;-74
2022/11/21 09:05:58;;;;;;;1.90;1.00;;;;;;;18.05;nan;-24319.88;5015215;28;20271;-74
2022/11/21 09:08:23;;;;;;;0.85;0.85;;;;;;;18.33;nan;-24327.41;5025069;28;20198;-74
2022/11/21 09:10:49;;;;;;;0.90;0.90;;;;;;;18.06;nan;-24320.16;5017886;28;20183;-74
2022/11/21 09:13:14;;;;;;;1.00;1.00;;;;;;;18.18;nan;-24323.22;5030070;28;20678;-73
2022/11/21 09:18:24;;;;;;;1.55;1.23;;;;;;;18.08;nan;-24320.56;5029311;28;20190;-74
2022/11/21 09:20:49;;;;;;;0.70;0.70;;;;;;;18.22;nan;-24324.47;5021311;28;20184;-75
2022/11/21 09:23:15;;;;;;;0.80;0.80;;;;;;;18.07;nan;-24320.28;5032357;28;20266;-72
2022/11/21 09:25:41;;;;;;;0.80;0.80;;;;;;;18.30;nan;-24326.69;5032266;28;20198;-73
2022/11/21 09:28:09;;;;;;;3.65;1.20;;;;;;;18.33;nan;-24327.53;5031868;28;20183;-73
2022/11/21 09:30:35;;;;;;;0.80;0.80;;;;;;;18.25;nan;-24325.31;5032501;28;20160;-74
2022/11/21 09:33:02;;;;;;;0.70;0.70;;;;;;;18.43;nan;-24330.31;5021999;28;20709;-74
2022/11/21 09:35:28;;;;;;;0.80;0.80;;;;;;;18.68;nan;-24337.00;5029703;28;20180;-74
2022/11/21 09:37:54;;;;;;;0.80;0.80;;;;;;;18.88;nan;-24342.72;5012462;28;20223;-74
2022/11/21 09:40:20;;;;;;;2.03;1.02;;;;;;;19.03;nan;-24346.63;5016622;28;20191;-74
2022/11/21 09:43:07;;;;;;;0.70;0.70;;;;;;;19.02;nan;-24346.47;5029713;28;20203;-74
2022/11/21 09:45:39;;;;;;;1.10;1.00;;;;;;;18.58;nan;-24334.22;5022352;28;20284;-74
2022/11/21 09:48:12;;;;;;;2.13;0.93;;;;;;;18.51;nan;-24332.41;5025313;28;20214;-73
2022/11/21 09:50:45;;;;;;;1.10;1.00;;;;;;;18.58;nan;-24334.22;5014442;28;20242;-74
2022/11/21 09:53:17;;;;;;;1.30;0.77;;;;;;;18.78;nan;-24339.94;5029167;28;20250;-74
2022/11/21 09:55:48;;;;;;;1.67;1.00;;;;;;;18.40;nan;-24329.47;5028347;28;20278;-74
2022/11/21 09:58:36;;;;;;;1.33;0.95;;;;;;;18.83;nan;-24341.31;5031686;28;20179;-74
2022/11/21 10:01:02;;;;;;;2.50;1.00;;;;;;;18.52;nan;-24332.69;5031880;28;20258;-74
2022/11/21 10:03:54;;;;;;;0.80;0.80;;;;;;;18.87;nan;-24342.31;5031414;28;20191;-74
2022/11/21 10:06:21;;;;;;;0.82;0.82;;;;;;;19.19;nan;-24351.06;5031024;28;20202;-74
2022/11/21 10:09:17;;;;;;;0.80;0.80;;;;;;;19.44;nan;-24357.88;5031621;28;20207;-74
2022/11/21 10:15:21;;;;;;;0.75;0.75;;;;;;;19.86;nan;-24369.56;4995603;28;20758;-74
2022/11/21 10:18:05;;;;;;;0.70;0.70;;;;;;;19.98;nan;-24372.91;4960923;28;20279;-73
2022/11/21 10:21:22;;;;;;;0.70;0.70;;;;;;;19.71;nan;-24365.41;5019959;28;20180;-73
2022/11/21 10:24:27;;;;;;;1.42;1.15;;;;;;;19.59;nan;-24362.06;4992545;28;20268;-73
2022/11/21 10:26:57;;;;;;;0.95;0.90;;;;;;;19.22;nan;-24352.03;5029343;28;20225;-74
2022/11/21 10:29:31;;;;;;;1.20;1.00;;;;;;;19.35;nan;-24355.66;5022112;28;20211;-74
2022/11/21 10:32:01;;;;;;;2.83;1.05;;;;;;;18.89;nan;-24343.00;5018185;28;20273;-74
2022/11/21 10:34:35;;;;;;;1.65;1.00;;;;;;;19.10;nan;-24348.56;5029930;28;20276;-74
2022/11/21 10:37:18;;;;;;;1.00;0.95;;;;;;;18.70;nan;-24337.56;5029938;28;20211;-74
2022/11/21 10:39:49;;;;;;;2.63;1.33;;;;;;;18.57;nan;-24333.94;5030482;28;20222;-73
2022/11/21 10:42:33;;;;;;;1.50;0.95;;;;;;;18.70;nan;-24337.72;5026213;28;20179;-73
2022/11/21 10:45:15;;;;;;;1.10;1.00;;;;;;;18.23;nan;-24324.75;5013843;28;20560;-74
2022/11/21 10:47:41;;;;;;;1.38;1.25;;;;;;;18.38;nan;-24328.94;5031415;28;20176;-73
2022/11/21 10:50:09;;;;;;;1.20;1.10;;;;;;;18.04;nan;-24319.44;5033980;28;20541;-72
2022/11/21 10:52:45;;;;;;;1.00;1.00;;;;;;;17.73;nan;-24310.81;5034158;28;20191;-73
2022/11/21 10:55:12;;;;;;;1.40;1.23;;;;;;;17.84;nan;-24314.00;5034349;28;20183;-73
2022/11/21 10:57:49;;;;;;;2.38;1.27;;;;;;;17.47;nan;-24303.81;5034623;28;20198;-73
2022/11/21 11:00:25;;;;;;;1.75;1.40;;;;;;;17.44;nan;-24302.84;5035085;28;20175;-73
2022/11/21 11:02:54;;;;;;;1.20;1.10;;;;;;;17.64;nan;-24308.44;5034668;28;20654;-73
2022/11/21 11:05:21;;;;;;;1.40;1.30;;;;;;;17.39;nan;-24301.59;5035116;28;20175;-73
2022/11/21 11:08:01;;;;;;;2.15;1.20;;;;;;;17.54;nan;-24305.63;5034899;28;20162;-73
2022/11/21 11:10:28;;;;;;;3.17;1.20;;;;;;;17.70;nan;-24309.97;5034833;28;20179;-73
2022/11/21 11:16:04;;;;;;;1.23;1.10;;;;;;;17.54;nan;-24305.63;5034429;28;20174;-73
2022/11/21 11:18:31;;;;;;;1.42;1.10;;;;;;;16.97;nan;-24289.88;5034493;28;20171;-73
2022/11/21 11:21:10;;;;;;;1.40;1.10;;;;;;;17.31;nan;-24299.22;5032538;28;20282;-73
2022/11/21 11:23:35;;;;;;;1.05;1.00;;;;;;;16.91;nan;-24288.34;5030255;28;20179;-73
2022/11/21 11:26:01;;;;;;;1.45;1.20;;;;;;;16.70;nan;-24282.47;5013056;28;20667;-73
2022/11/21 11:28:34;;;;;;;1.20;1.10;;;;;;;16.57;nan;-24278.97;5018994;28;20684;-73
2022/11/21 11:31:00;;;;;;;1.20;1.10;;;;;;;16.39;nan;-24273.78;5020725;28;20214;-73
2022/11/21 11:33:28;;;;;;;1.35;1.13;;;;;;;16.60;nan;-24279.66;5022642;28;20677;-73
2022/11/21 11:36:00;;;;;;;1.00;1.00;;;;;;;16.55;nan;-24278.41;5026192;28;20218;-73
2022/11/21 11:38:28;;;;;;;1.10;1.10;;;;;;;16.66;nan;-24281.50;5021666;28;20183;-73
2022/11/21 11:40:54;;;;;;;1.30;1.17;;;;;;;16.36;nan;-24273.09;5021603;28;20322;-73
2022/11/21 11:52:51;;;;;;;1.20;1.10;;;;;;;15.95;nan;-24261.63;5024807;28;20237;-74
2022/11/21 11:55:35;;;;;;;0.98;0.98;;;;;;;15.79;nan;-24257.28;5019325;28;20183;-73
2022/11/21 11:58:06;;;;;;;1.42;1.10;;;;;;;15.94;nan;-24261.34;5027394;28;20187;-72
2022/11/21 12:00:42;;;;;;;1.55;1.20;;;;;;;15.32;nan;-24244.28;5017352;28;20286;-72
2022/11/21 12:03:18;;;;;;;1.35;1.25;;;;;;;15.67;nan;-24254.06;5030513;28;20257;-74
2022/11/21 12:06:22;;;;;;;1.30;1.20;;;;;;;15.60;nan;-24252.13;5034125;28;20167;-74
2022/11/21 12:08:58;;;;;;;1.73;1.35;;;;;;;15.45;nan;-24247.91;5033820;28;20559;-73
2022/11/21 12:17:29;;;;;;;1.20;1.10;;;;;;;15.38;nan;-24246.09;5013718;28;20245;-73